Time;durP1;ratioP1;P1;durP2;ratioP2;P2;SDS_P1;SDS_P2;PMS_P1;PMS_P2;Temp;Humidity;BMP_temperature;BMP_pressure;BME280_temperature;BME280_humidity;BME280_pressure;Samples;Min_cycle;Max_cycle;Signal;HPM_P1;HPM_P2
2022/03/24 00:02:12;;;;;;;6.53;4.00;;;19.30;46.50;;;;;;5014697;28;20490;-57
2022/03/24 00:04:37;;;;;;;7.05;4.10;;;19.30;46.60;;;;;;5017885;28;20033;-57
2022/03/24 00:07:04;;;;;;;9.18;4.97;;;19.30;46.60;;;;;;5016536;28;20514;-57
2022/03/24 00:09:29;;;;;;;6.95;4.20;;;19.30;46.60;;;;;;5023376;28;20029;-57
2022/03/24 00:11:55;;;;;;;8.40;4.63;;;19.30;46.60;;;;;;5021388;28;20041;-56
2022/03/24 00:14:22;;;;;;;8.13;4.60;;;19.20;46.60;;;;;;5017897;28;20033;-57
2022/03/24 00:16:48;;;;;;;7.10;4.32;;;19.20;46.60;;;;;;5020327;28;20128;-57
2022/03/24 00:19:16;;;;;;;7.40;4.70;;;19.20;46.60;;;;;;5019875;28;20025;-56
2022/03/24 00:21:43;;;;;;;7.70;4.70;;;19.20;46.60;;;;;;5017908;28;20033;-56
2022/03/24 00:24:08;;;;;;;7.65;4.28;;;19.20;46.70;;;;;;5021981;28;20022;-57
2022/03/24 00:26:34;;;;;;;8.07;4.70;;;19.10;46.60;;;;;;5019436;28;20548;-57
2022/03/24 00:29:02;;;;;;;8.27;4.50;;;19.10;46.60;;;;;;5016507;28;20061;-57
2022/03/24 00:31:28;;;;;;;8.75;4.93;;;19.10;46.70;;;;;;5018522;28;20037;-56
2022/03/24 00:33:54;;;;;;;8.57;5.10;;;19.10;46.70;;;;;;5023383;28;20022;-57
2022/03/24 00:36:20;;;;;;;10.23;4.70;;;19.10;46.70;;;;;;5016372;28;20228;-57
2022/03/24 00:38:46;;;;;;;7.78;4.60;;;19.10;46.70;;;;;;5019199;28;20041;-56
2022/03/24 00:41:12;;;;;;;8.13;4.65;;;19.10;46.60;;;;;;5014418;28;20532;-57
2022/03/24 00:43:39;;;;;;;7.03;4.43;;;19.10;46.70;;;;;;5012709;28;20077;-57
2022/03/24 00:46:05;;;;;;;7.95;4.90;;;19.10;46.70;;;;;;5020389;28;20026;-57
2022/03/24 00:48:31;;;;;;;7.97;4.88;;;19.00;46.70;;;;;;5017374;28;20049;-57
2022/03/24 00:50:57;;;;;;;8.38;4.50;;;19.00;46.70;;;;;;5016073;28;20391;-57
2022/03/24 00:53:23;;;;;;;6.93;4.40;;;19.00;46.80;;;;;;5018168;28;20072;-57
2022/03/24 00:55:49;;;;;;;8.45;4.70;;;19.00;46.80;;;;;;5020267;28;20026;-57
2022/03/24 00:58:15;;;;;;;8.23;4.45;;;19.00;46.70;;;;;;5016355;28;20036;-56
2022/03/24 01:00:42;;;;;;;7.80;4.53;;;19.00;46.70;;;;;;5015585;28;20014;-57
2022/03/24 01:03:08;;;;;;;7.43;4.50;;;18.90;46.70;;;;;;5014401;28;20066;-57
2022/03/24 01:05:37;;;;;;;7.22;4.60;;;18.90;46.80;;;;;;5013858;28;20080;-57
2022/03/24 01:08:05;;;;;;;8.35;5.03;;;18.90;46.80;;;;;;5021285;28;20033;-57
2022/03/24 01:10:31;;;;;;;7.32;4.60;;;18.90;46.70;;;;;;5012893;28;20087;-57
2022/03/24 01:12:59;;;;;;;8.80;4.55;;;18.90;46.70;;;;;;5023302;28;20671;-56
2022/03/24 01:15:26;;;;;;;8.60;4.50;;;18.90;46.80;;;;;;5025244;28;20079;-57
2022/03/24 01:17:52;;;;;;;7.85;4.60;;;18.90;46.80;;;;;;5019427;28;20037;-57
2022/03/24 01:20:18;;;;;;;9.07;4.88;;;18.90;46.80;;;;;;5018786;28;20026;-56
2022/03/24 01:22:44;;;;;;;8.68;4.75;;;18.90;46.90;;;;;;5020916;28;20030;-57
2022/03/24 01:25:09;;;;;;;8.15;4.93;;;18.80;46.90;;;;;;5018836;28;20025;-57
2022/03/24 01:27:38;;;;;;;7.68;4.70;;;18.80;46.90;;;;;;5018479;28;20102;-57
2022/03/24 01:30:05;;;;;;;8.75;4.80;;;18.80;46.90;;;;;;5020920;28;20184;-57
2022/03/24 01:32:31;;;;;;;7.18;4.53;;;18.80;46.90;;;;;;5019923;28;20037;-56
2022/03/24 01:34:57;;;;;;;6.95;4.30;;;18.80;47.00;;;;;;5018237;28;20490;-57
2022/03/24 01:37:23;;;;;;;7.30;4.30;;;18.80;47.00;;;;;;5020557;28;20033;-56
2022/03/24 01:39:51;;;;;;;7.25;4.30;;;18.80;47.00;;;;;;5023081;28;20033;-57
2022/03/24 01:42:18;;;;;;;8.75;4.85;;;18.80;47.10;;;;;;5025127;28;20045;-56
2022/03/24 01:44:48;;;;;;;7.63;4.57;;;18.70;47.00;;;;;;5029258;28;20032;-57
2022/03/24 01:47:14;;;;;;;7.82;4.55;;;18.70;47.10;;;;;;5017857;28;20030;-56
2022/03/24 01:49:44;;;;;;;8.68;4.90;;;18.70;47.10;;;;;;5018696;28;20041;-57
2022/03/24 01:52:11;;;;;;;7.03;4.50;;;18.70;47.10;;;;;;5016808;28;20034;-57
2022/03/24 01:54:41;;;;;;;7.40;4.50;;;18.70;47.00;;;;;;5023731;28;20025;-56
2022/03/24 01:57:09;;;;;;;9.07;5.00;;;18.70;47.10;;;;;;5023328;28;20029;-56
2022/03/24 01:59:37;;;;;;;7.78;4.80;;;18.70;47.30;;;;;;5052059;28;20084;-57
2022/03/24 02:02:03;;;;;;;8.35;4.82;;;18.60;47.10;;;;;;5019322;28;20079;-57
2022/03/24 02:04:30;;;;;;;8.38;4.68;;;18.60;47.10;;;;;;5014107;28;20057;-56
2022/03/24 02:30:50;;;;;;;8.35;4.68;;;18.50;47.40;;;;;;5018120;28;20045;-57
2022/03/24 02:35:54;;;;;;;8.15;4.70;;;18.50;47.70;;;;;;4831984;23;20303;-57
2022/03/24 02:38:22;;;;;;;7.00;4.60;;;18.50;47.50;;;;;;5038858;28;20056;-57
2022/03/24 02:40:50;;;;;;;7.43;4.53;;;18.40;47.50;;;;;;5047955;28;20064;-57
2022/03/24 02:43:19;;;;;;;8.15;4.88;;;18.40;47.50;;;;;;5043413;28;20049;-57
2022/03/24 02:45:46;;;;;;;8.15;4.95;;;18.40;47.50;;;;;;5053201;28;20027;-57
2022/03/24 02:48:12;;;;;;;7.57;4.75;;;18.40;47.70;;;;;;5040711;28;20041;-57
2022/03/24 02:50:38;;;;;;;7.93;4.72;;;18.40;47.80;;;;;;5046338;28;20061;-57
2022/03/24 02:53:04;;;;;;;7.20;4.35;;;18.40;48.70;;;;;;5048005;28;20467;-57
2022/03/24 02:55:30;;;;;;;8.00;5.13;;;18.40;47.60;;;;;;5046460;28;20029;-58
2022/03/24 02:57:56;;;;;;;7.40;4.80;;;18.40;47.70;;;;;;5041451;28;20068;-57
2022/03/24 03:00:25;;;;;;;7.80;4.47;;;18.40;48.00;;;;;;5046019;28;20029;-57
2022/03/24 03:02:52;;;;;;;7.75;4.88;;;18.30;47.80;;;;;;5046486;28;20025;-58
2022/03/24 03:05:18;;;;;;;7.68;4.90;;;18.30;48.80;;;;;;5041419;28;20033;-57
2022/03/24 03:07:44;;;;;;;7.93;4.90;;;18.30;47.90;;;;;;5045401;28;20558;-57
2022/03/24 03:10:11;;;;;;;9.30;5.03;;;18.30;48.00;;;;;;5042928;28;20020;-56
2022/03/24 03:12:37;;;;;;;8.10;4.85;;;18.30;48.30;;;;;;5042272;28;20029;-57
2022/03/24 03:15:04;;;;;;;9.15;5.00;;;18.20;48.10;;;;;;5045823;28;20033;-57
2022/03/24 03:17:30;;;;;;;7.78;4.38;;;18.20;48.20;;;;;;5041024;28;20052;-56
2022/03/24 03:19:56;;;;;;;8.98;4.80;;;18.20;47.90;;;;;;5045953;28;20047;-57
2022/03/24 03:22:22;;;;;;;7.97;4.97;;;18.20;48.20;;;;;;5041388;28;20560;-57
2022/03/24 03:24:47;;;;;;;8.27;5.60;;;18.20;48.30;;;;;;5042969;28;20096;-57
2022/03/24 03:27:13;;;;;;;9.32;5.32;;;18.20;48.20;;;;;;5042750;28;20422;-57
2022/03/24 03:29:40;;;;;;;7.05;4.60;;;18.20;48.30;;;;;;5045797;28;20111;-57
2022/03/24 03:32:06;;;;;;;8.13;4.60;;;18.20;48.40;;;;;;5043372;28;20531;-57
2022/03/24 03:34:31;;;;;;;8.07;5.03;;;18.20;48.30;;;;;;5044276;28;20032;-57
2022/03/24 03:36:59;;;;;;;9.10;4.90;;;18.20;48.50;;;;;;5045059;28;20463;-57
2022/03/24 03:39:24;;;;;;;7.68;4.70;;;18.20;48.30;;;;;;5045574;28;20041;-57
2022/03/24 03:41:50;;;;;;;7.70;5.00;;;18.10;48.30;;;;;;5045992;28;20029;-57
2022/03/24 03:44:16;;;;;;;7.93;5.03;;;18.10;48.30;;;;;;5046413;28;20029;-57
2022/03/24 03:46:41;;;;;;;7.35;4.80;;;18.20;48.30;;;;;;5040212;28;20599;-57
2022/03/24 03:49:07;;;;;;;8.50;5.15;;;18.10;48.30;;;;;;5045320;28;20535;-57
2022/03/24 03:51:35;;;;;;;7.25;4.93;;;18.20;48.30;;;;;;5041457;28;20500;-57
2022/03/24 03:54:00;;;;;;;8.60;5.07;;;18.10;48.30;;;;;;5045748;28;20525;-57
2022/03/24 03:56:26;;;;;;;8.00;5.15;;;18.10;48.30;;;;;;5044426;28;20065;-56
2022/03/24 03:58:52;;;;;;;7.95;4.75;;;18.00;48.30;;;;;;5041304;28;20037;-57
2022/03/24 04:01:17;;;;;;;7.55;5.05;;;18.00;48.20;;;;;;5039881;28;20031;-57
2022/03/24 04:03:43;;;;;;;8.73;4.78;;;18.10;48.30;;;;;;5051147;28;20179;-57
2022/03/24 04:06:10;;;;;;;7.90;4.93;;;18.00;48.30;;;;;;5047200;28;20036;-57
2022/03/24 04:08:39;;;;;;;9.00;4.97;;;18.00;48.10;;;;;;5047803;28;20039;-57
2022/03/24 04:11:07;;;;;;;9.15;5.40;;;18.00;48.10;;;;;;5047541;28;20032;-57
2022/03/24 04:13:34;;;;;;;7.45;4.93;;;18.00;48.30;;;;;;5052207;28;20036;-57
2022/03/24 04:16:00;;;;;;;7.13;4.70;;;18.00;49.30;;;;;;5043914;28;20032;-56
2022/03/24 04:18:26;;;;;;;7.80;5.30;;;18.00;48.20;;;;;;5040622;28;20033;-57
2022/03/24 04:20:51;;;;;;;7.38;4.60;;;18.00;48.50;;;;;;5048802;28;20029;-57
2022/03/24 04:23:18;;;;;;;8.35;4.72;;;18.00;49.30;;;;;;5038235;28;20034;-57
2022/03/24 04:25:45;;;;;;;8.30;5.28;;;18.00;48.60;;;;;;5050425;28;20013;-57
2022/03/24 04:28:11;;;;;;;7.93;4.85;;;17.90;48.70;;;;;;5052893;28;20515;-57
2022/03/24 04:30:37;;;;;;;7.88;4.78;;;17.90;49.20;;;;;;5042712;28;20021;-57
2022/03/24 04:33:04;;;;;;;8.25;4.72;;;17.90;49.40;;;;;;5045148;28;20040;-57
2022/03/24 04:35:31;;;;;;;8.85;4.85;;;17.90;49.60;;;;;;5047002;28;20036;-57
2022/03/24 04:37:57;;;;;;;9.10;5.18;;;17.90;50.00;;;;;;5040967;28;20055;-57
2022/03/24 04:40:24;;;;;;;10.43;5.05;;;17.80;49.70;;;;;;5044269;28;20017;-57
2022/03/24 04:42:53;;;;;;;9.20;5.55;;;17.80;50.10;;;;;;5047756;28;20035;-57
2022/03/24 04:45:19;;;;;;;12.95;5.38;;;17.80;50.30;;;;;;5045448;28;20469;-57
2022/03/24 04:47:46;;;;;;;10.50;4.95;;;17.80;50.60;;;;;;5044083;28;20495;-57
2022/03/24 04:50:12;;;;;;;11.30;5.40;;;17.80;50.90;;;;;;5043087;28;20017;-57
2022/03/24 04:52:38;;;;;;;10.80;5.40;;;17.80;51.30;;;;;;5042969;28;20045;-57
2022/03/24 04:55:04;;;;;;;8.38;4.70;;;17.70;51.00;;;;;;5045166;28;20409;-57
2022/03/24 04:57:30;;;;;;;11.43;5.18;;;17.70;51.10;;;;;;5046817;28;20044;-57
2022/03/24 04:59:56;;;;;;;8.77;5.00;;;17.70;51.10;;;;;;5045373;28;20459;-57
2022/03/24 05:02:24;;;;;;;9.50;4.82;;;17.70;51.00;;;;;;5043917;28;20095;-57
2022/03/24 05:04:50;;;;;;;10.10;5.10;;;17.70;51.10;;;;;;5049733;28;20443;-57
2022/03/24 05:07:15;;;;;;;9.02;4.65;;;17.70;51.00;;;;;;5046925;28;20021;-57
2022/03/24 05:09:41;;;;;;;9.60;5.00;;;17.70;50.90;;;;;;5043686;28;20047;-57
2022/03/24 05:12:07;;;;;;;8.07;5.00;;;17.70;50.90;;;;;;5042447;28;20029;-57
2022/03/24 05:14:33;;;;;;;9.65;5.30;;;17.70;51.10;;;;;;5044289;28;20029;-57
2022/03/24 05:16:59;;;;;;;8.38;4.78;;;17.70;51.10;;;;;;5044087;28;20044;-57
2022/03/24 05:19:25;;;;;;;11.02;5.25;;;17.60;50.90;;;;;;5045142;28;20025;-57
2022/03/24 05:21:51;;;;;;;8.85;4.82;;;17.60;51.00;;;;;;5035868;28;20071;-57
2022/03/24 05:24:17;;;;;;;8.43;4.78;;;17.60;51.10;;;;;;5038202;28;20032;-57
2022/03/24 05:26:43;;;;;;;8.15;4.47;;;17.60;51.10;;;;;;5040266;28;20133;-57
2022/03/24 05:29:08;;;;;;;8.35;4.68;;;17.60;51.10;;;;;;5045657;28;20021;-57
2022/03/24 05:31:34;;;;;;;9.25;4.70;;;17.60;51.20;;;;;;5043998;28;20025;-57
2022/03/24 05:34:00;;;;;;;8.65;4.57;;;17.60;51.30;;;;;;5043236;28;20025;-56
2022/03/24 05:36:25;;;;;;;7.93;4.68;;;17.60;51.30;;;;;;5044867;28;20052;-57
2022/03/24 05:38:51;;;;;;;9.73;4.75;;;17.60;51.30;;;;;;5043607;28;20025;-58
2022/03/24 05:41:17;;;;;;;9.02;4.60;;;17.60;51.40;;;;;;5054130;28;20370;-57
2022/03/24 05:44:02;;;;;;;8.00;4.35;;;17.60;51.40;;;;;;5045191;28;20025;-57
2022/03/24 05:46:34;;;;;;;7.88;4.53;;;17.50;51.40;;;;;;5039396;28;20029;-57
2022/03/24 05:49:00;;;;;;;9.35;4.32;;;17.50;51.40;;;;;;5041706;28;20115;-57
2022/03/24 05:51:26;;;;;;;8.27;4.40;;;17.50;51.60;;;;;;5044907;28;20572;-57
2022/03/24 05:53:51;;;;;;;7.40;4.30;;;17.50;51.80;;;;;;5039006;28;20458;-57
2022/03/24 05:56:18;;;;;;;8.65;4.50;;;17.60;52.10;;;;;;5044496;28;20028;-57
2022/03/24 05:58:44;;;;;;;8.50;4.55;;;17.50;52.90;;;;;;5043597;28;20041;-56
2022/03/24 06:01:10;;;;;;;9.13;4.30;;;17.50;52.60;;;;;;5048228;28;20035;-57
2022/03/24 06:03:36;;;;;;;9.23;4.45;;;17.60;53.10;;;;;;5046899;28;20035;-57
2022/03/24 06:06:03;;;;;;;13.23;4.57;;;17.50;53.30;;;;;;5042385;28;20029;-57
2022/03/24 06:08:30;;;;;;;13.48;4.72;;;17.60;53.80;;;;;;5046883;28;20071;-57
2022/03/24 06:10:56;;;;;;;10.07;4.45;;;17.60;53.70;;;;;;5042565;28;20029;-57
2022/03/24 06:13:22;;;;;;;8.65;4.45;;;17.60;53.80;;;;;;5047399;28;20048;-57
2022/03/24 06:15:50;;;;;;;9.73;4.55;;;17.60;53.70;;;;;;5047375;28;20025;-57
2022/03/24 06:18:16;;;;;;;13.25;5.13;;;17.60;54.70;;;;;;5046324;28;20045;-58
2022/03/24 06:20:43;;;;;;;11.98;5.30;;;17.60;55.20;;;;;;5047569;28;20574;-57
2022/03/24 06:23:09;;;;;;;12.20;4.45;;;17.60;55.40;;;;;;5041820;28;20397;-58
2022/03/24 06:25:36;;;;;;;10.07;5.03;;;17.60;54.90;;;;;;5041372;28;20017;-58
2022/03/24 06:28:02;;;;;;;13.52;4.78;;;17.60;55.60;;;;;;5046400;28;20037;-58
2022/03/24 06:30:28;;;;;;;10.38;4.85;;;17.60;55.20;;;;;;5042959;28;20068;-58
2022/03/24 06:32:56;;;;;;;10.55;5.07;;;17.60;55.30;;;;;;5047314;28;20044;-58
2022/03/24 06:35:22;;;;;;;10.07;4.63;;;17.60;55.20;;;;;;5036905;28;20026;-58
2022/03/24 06:37:48;;;;;;;9.40;4.90;;;17.60;55.10;;;;;;5048544;28;20159;-58
2022/03/24 06:40:14;;;;;;;11.88;5.35;;;17.60;54.80;;;;;;5046340;28;20032;-58
2022/03/24 06:42:40;;;;;;;12.65;4.70;;;17.50;54.70;;;;;;5045022;28;20029;-58
2022/03/24 06:45:06;;;;;;;11.40;4.78;;;17.60;54.60;;;;;;5043175;28;20029;-58
2022/03/24 06:47:32;;;;;;;8.52;4.80;;;17.60;54.50;;;;;;5043851;28;30381;-58
2022/03/24 06:49:58;;;;;;;11.68;4.63;;;17.50;55.40;;;;;;5048185;28;20100;-58
2022/03/24 06:52:24;;;;;;;8.98;4.70;;;17.50;54.30;;;;;;5047048;28;20115;-58
2022/03/24 06:54:50;;;;;;;9.77;4.90;;;17.50;54.20;;;;;;5042807;28;20433;-58
2022/03/24 06:57:16;;;;;;;10.23;4.22;;;17.50;54.20;;;;;;5045728;28;20041;-58
2022/03/24 06:59:42;;;;;;;10.43;4.63;;;17.50;53.90;;;;;;5041565;28;20078;-58
2022/03/24 07:02:07;;;;;;;9.88;4.72;;;17.50;53.90;;;;;;5047708;28;20041;-58
2022/03/24 07:04:34;;;;;;;10.02;4.50;;;17.50;53.50;;;;;;5046952;28;20025;-58
2022/03/24 07:06:59;;;;;;;12.23;4.70;;;17.50;53.40;;;;;;5041951;28;20025;-58
2022/03/24 07:09:25;;;;;;;9.18;4.60;;;17.50;53.40;;;;;;5045423;28;20033;-58
2022/03/24 07:11:51;;;;;;;9.02;4.30;;;17.50;53.50;;;;;;5041058;28;20021;-58
2022/03/24 07:14:17;;;;;;;11.93;4.65;;;17.50;53.50;;;;;;5046016;28;20412;-58
2022/03/24 07:16:43;;;;;;;8.50;4.72;;;17.40;53.30;;;;;;5039151;28;20034;-58
2022/03/24 07:19:09;;;;;;;9.77;4.70;;;17.40;53.30;;;;;;5045184;28;20037;-58
2022/03/24 07:21:35;;;;;;;10.90;4.82;;;17.40;53.30;;;;;;5037010;28;20397;-58
2022/03/24 07:24:01;;;;;;;9.65;4.70;;;17.40;53.20;;;;;;5045809;28;20029;-58
2022/03/24 07:26:26;;;;;;;9.20;4.97;;;17.40;53.20;;;;;;5045546;28;20033;-58
2022/03/24 07:28:52;;;;;;;8.68;4.85;;;17.40;54.10;;;;;;5047263;28;20030;-58
2022/03/24 07:31:19;;;;;;;9.82;4.55;;;17.40;53.00;;;;;;5046929;28;20021;-58
2022/03/24 07:33:45;;;;;;;8.60;4.40;;;17.40;53.00;;;;;;5042390;28;20025;-58
2022/03/24 07:36:11;;;;;;;8.98;4.53;;;17.40;53.00;;;;;;5045327;28;20091;-58
2022/03/24 07:38:37;;;;;;;8.38;4.32;;;17.40;53.00;;;;;;5045433;28;20120;-58
2022/03/24 07:41:03;;;;;;;11.95;4.85;;;17.40;53.00;;;;;;5045792;28;20107;-58
2022/03/24 07:43:28;;;;;;;8.88;4.38;;;17.40;53.00;;;;;;5040332;28;20069;-58
2022/03/24 07:45:54;;;;;;;9.90;4.63;;;17.40;53.00;;;;;;5044595;28;20021;-58
2022/03/24 07:48:25;;;;;;;11.00;4.57;;;17.40;53.00;;;;;;5046137;28;20476;-58
2022/03/24 07:50:51;;;;;;;8.38;4.40;;;17.40;53.00;;;;;;5045130;28;20024;-58
2022/03/24 07:53:33;;;;;;;6.97;4.03;;;17.40;52.90;;;;;;5041991;28;20120;-58
2022/03/24 07:55:59;;;;;;;7.68;4.30;;;17.30;52.80;;;;;;5040895;28;20409;-58
2022/03/24 07:58:25;;;;;;;8.55;4.20;;;17.40;52.80;;;;;;5045571;28;20044;-58
2022/03/24 08:00:51;;;;;;;8.80;4.70;;;17.40;52.80;;;;;;5044593;28;20533;-58
2022/03/24 08:03:19;;;;;;;8.48;4.40;;;17.30;52.70;;;;;;5045436;28;20063;-58
2022/03/24 08:05:45;;;;;;;8.25;4.38;;;17.30;52.60;;;;;;5045948;28;20021;-58
2022/03/24 08:08:11;;;;;;;7.95;4.38;;;17.40;52.70;;;;;;5046277;28;20036;-58
2022/03/24 08:10:40;;;;;;;8.13;4.20;;;17.40;52.70;;;;;;5045333;28;20497;-58
2022/03/24 08:13:06;;;;;;;8.32;4.47;;;17.30;52.60;;;;;;5041743;28;20017;-58
2022/03/24 08:15:32;;;;;;;10.65;4.25;;;17.30;52.60;;;;;;5044681;28;20112;-58
2022/03/24 08:17:58;;;;;;;6.95;4.18;;;17.40;52.60;;;;;;5043526;28;20111;-58
2022/03/24 08:20:23;;;;;;;8.38;4.30;;;17.40;52.60;;;;;;5045069;28;20030;-58
2022/03/24 08:22:49;;;;;;;7.75;4.07;;;17.40;52.50;;;;;;5045814;28;20029;-58
2022/03/24 08:25:15;;;;;;;8.73;4.13;;;17.40;52.50;;;;;;5045000;28;20033;-58
2022/03/24 08:27:41;;;;;;;8.35;4.43;;;17.40;52.50;;;;;;5045392;28;20025;-58
2022/03/24 08:30:06;;;;;;;8.13;4.50;;;17.40;52.50;;;;;;5044643;28;20024;-58
2022/03/24 08:32:32;;;;;;;7.18;4.40;;;17.40;52.40;;;;;;5045368;28;21073;-58
2022/03/24 08:34:58;;;;;;;7.50;4.40;;;17.40;52.40;;;;;;5041772;28;20397;-58
2022/03/24 08:37:24;;;;;;;8.30;4.28;;;17.40;52.40;;;;;;5043557;28;20053;-58
2022/03/24 08:39:49;;;;;;;8.93;4.50;;;17.40;52.30;;;;;;5044456;28;20024;-58
2022/03/24 08:42:15;;;;;;;7.65;4.03;;;17.40;52.30;;;;;;5045634;28;20021;-58
2022/03/24 08:44:40;;;;;;;8.00;4.25;;;17.40;52.30;;;;;;5045298;28;20021;-58
2022/03/24 08:47:06;;;;;;;8.15;4.45;;;17.40;52.30;;;;;;5043082;28;20032;-58
2022/03/24 08:49:32;;;;;;;8.02;4.03;;;17.40;52.20;;;;;;5044386;28;20043;-58
2022/03/24 08:51:58;;;;;;;9.35;4.18;;;17.40;52.10;;;;;;5041188;28;20108;-58
2022/03/24 08:54:24;;;;;;;8.52;3.92;;;17.40;52.10;;;;;;5043262;28;20108;-58
2022/03/24 08:56:50;;;;;;;9.38;4.22;;;17.50;52.10;;;;;;5044429;28;20104;-58
2022/03/24 08:59:16;;;;;;;8.15;4.30;;;17.50;52.10;;;;;;5045727;28;20048;-58
2022/03/24 09:01:43;;;;;;;8.32;4.15;;;17.50;52.20;;;;;;5043913;28;20484;-58
2022/03/24 09:04:10;;;;;;;7.78;4.25;;;17.50;52.10;;;;;;5041892;28;20088;-58
2022/03/24 09:06:38;;;;;;;7.80;4.15;;;17.50;52.00;;;;;;5044587;28;22703;-58
2022/03/24 09:09:05;;;;;;;6.88;4.18;;;17.50;52.00;;;;;;5039069;28;20033;-58
2022/03/24 09:11:31;;;;;;;8.90;4.05;;;17.50;52.00;;;;;;5043853;28;20029;-58
2022/03/24 09:13:57;;;;;;;7.97;4.15;;;17.50;51.90;;;;;;5037719;28;20095;-58
2022/03/24 09:16:22;;;;;;;8.07;4.00;;;17.50;51.90;;;;;;5041060;28;20123;-58
2022/03/24 09:18:48;;;;;;;8.38;4.30;;;17.50;51.90;;;;;;5045236;28;20037;-58
2022/03/24 09:21:14;;;;;;;8.15;4.40;;;17.50;51.90;;;;;;5039107;28;20025;-58
2022/03/24 09:23:40;;;;;;;7.15;4.22;;;17.50;51.90;;;;;;5044869;28;20079;-58
2022/03/24 09:26:05;;;;;;;6.75;4.10;;;17.50;51.90;;;;;;5036701;28;20021;-58
2022/03/24 09:28:32;;;;;;;8.68;4.20;;;17.50;51.80;;;;;;5045080;28;20107;-58
2022/03/24 09:30:57;;;;;;;7.95;4.32;;;17.50;51.80;;;;;;5043220;28;20037;-58
2022/03/24 09:33:23;;;;;;;7.72;4.53;;;17.50;51.80;;;;;;5042890;28;20032;-58
2022/03/24 09:35:50;;;;;;;7.07;4.05;;;17.50;51.80;;;;;;5048274;28;20033;-58
2022/03/24 09:38:19;;;;;;;7.13;4.07;;;17.50;51.70;;;;;;5046586;28;20037;-58
2022/03/24 09:40:45;;;;;;;9.10;4.18;;;17.60;51.70;;;;;;5040860;28;20026;-58
2022/03/24 09:43:14;;;;;;;7.43;4.07;;;17.60;51.70;;;;;;5044182;28;20459;-58
2022/03/24 09:45:41;;;;;;;7.35;4.20;;;17.60;51.70;;;;;;5040922;28;20025;-58
2022/03/24 09:48:07;;;;;;;7.32;4.60;;;17.60;51.60;;;;;;5048600;28;20033;-58
2022/03/24 09:50:36;;;;;;;6.78;3.75;;;17.60;51.60;;;;;;5047773;28;20087;-58
2022/03/24 09:53:02;;;;;;;7.28;3.90;;;17.60;51.60;;;;;;5044872;28;20036;-58
2022/03/24 09:55:32;;;;;;;7.38;3.95;;;17.60;51.50;;;;;;5048057;28;20029;-58
2022/03/24 09:58:02;;;;;;;7.30;4.13;;;17.70;51.60;;;;;;5046348;28;20075;-58
2022/03/24 10:00:27;;;;;;;7.53;4.20;;;17.60;51.50;;;;;;5047015;28;20026;-58
2022/03/24 10:03:07;;;;;;;7.80;4.10;;;17.70;51.50;;;;;;5047348;28;20036;-58
2022/03/24 10:05:32;;;;;;;7.78;4.30;;;17.70;51.50;;;;;;5047615;28;20409;-58
2022/03/24 10:08:03;;;;;;;6.68;3.97;;;17.70;51.50;;;;;;5048920;28;20025;-58
2022/03/24 10:10:31;;;;;;;6.10;3.75;;;17.70;51.40;;;;;;5044428;28;20438;-58
2022/03/24 10:12:56;;;;;;;7.47;4.22;;;17.70;51.40;;;;;;5047596;28;20061;-58
2022/03/24 10:15:22;;;;;;;7.10;3.97;;;17.80;51.40;;;;;;5047758;28;20076;-58
2022/03/24 10:17:52;;;;;;;6.80;3.85;;;17.80;51.40;;;;;;5047763;28;20072;-58
2022/03/24 10:20:18;;;;;;;7.63;4.20;;;17.80;51.30;;;;;;5046539;28;20056;-58
2022/03/24 10:23:03;;;;;;;7.53;3.90;;;17.80;51.30;;;;;;5048314;28;20029;-58
2022/03/24 10:25:39;;;;;;;6.78;4.13;;;17.80;51.20;;;;;;5045125;28;20033;-58
2022/03/24 10:28:11;;;;;;;7.70;4.10;;;17.80;51.20;;;;;;5045591;28;20063;-58
2022/03/24 10:30:46;;;;;;;6.30;3.83;;;17.80;51.10;;;;;;5047666;28;20047;-58
2022/03/24 10:33:25;;;;;;;7.57;4.13;;;17.90;51.20;;;;;;5041616;28;20051;-58
2022/03/24 10:36:02;;;;;;;6.63;3.88;;;17.90;51.20;;;;;;5041333;28;20045;-58
2022/03/24 10:38:32;;;;;;;7.20;4.28;;;17.90;51.10;;;;;;5045312;28;20035;-58
2022/03/24 10:41:01;;;;;;;6.35;4.00;;;17.90;51.10;;;;;;5047006;28;20397;-58
2022/03/24 10:43:27;;;;;;;7.65;4.70;;;17.90;51.00;;;;;;5043973;28;20032;-58
2022/03/24 10:45:53;;;;;;;7.72;4.38;;;17.90;51.00;;;;;;5045375;28;20777;-58
2022/03/24 10:48:21;;;;;;;7.95;4.40;;;18.00;51.00;;;;;;5046864;28;20067;-58
2022/03/24 10:50:47;;;;;;;6.82;3.83;;;18.00;51.00;;;;;;5040624;28;20138;-59
2022/03/24 10:53:16;;;;;;;6.57;4.10;;;18.00;51.00;;;;;;5048277;28;20583;-58
2022/03/24 10:55:49;;;;;;;6.78;4.10;;;18.00;51.00;;;;;;5046283;28;20052;-58
2022/03/24 10:58:21;;;;;;;7.70;4.10;;;18.10;51.00;;;;;;5046406;28;20041;-58
2022/03/24 11:00:48;;;;;;;7.13;4.13;;;18.10;51.00;;;;;;5044276;28;20021;-58
2022/03/24 11:03:18;;;;;;;6.68;4.00;;;18.10;50.90;;;;;;5045245;28;20056;-58
2022/03/24 11:05:43;;;;;;;6.63;4.15;;;18.10;50.90;;;;;;5043220;28;20040;-58
2022/03/24 11:08:09;;;;;;;6.95;4.25;;;18.10;50.80;;;;;;5047693;28;20029;-58
2022/03/24 11:10:48;;;;;;;8.13;4.00;;;18.10;50.80;;;;;;5046856;28;20029;-58
2022/03/24 11:13:38;;;;;;;7.22;4.18;;;18.20;50.80;;;;;;5047085;28;20033;-58
2022/03/24 11:16:04;;;;;;;6.63;3.88;;;18.20;50.80;;;;;;4986065;28;20038;-58
2022/03/24 11:18:29;;;;;;;7.35;4.22;;;18.20;50.70;;;;;;4982355;28;20120;-58
2022/03/24 11:20:56;;;;;;;8.38;4.00;;;18.20;50.70;;;;;;4970492;28;20089;-58
2022/03/24 11:23:29;;;;;;;6.35;3.85;;;18.30;50.70;;;;;;4986733;28;20064;-58
2022/03/24 11:25:57;;;;;;;7.18;4.28;;;18.30;50.70;;;;;;4987397;28;20545;-58
2022/03/24 11:28:23;;;;;;;7.40;3.90;;;18.30;50.60;;;;;;4970213;28;21040;-58
2022/03/24 11:30:49;;;;;;;6.55;3.88;;;18.40;50.60;;;;;;4986214;28;20514;-58
2022/03/24 11:33:16;;;;;;;6.18;3.83;;;18.40;50.60;;;;;;4970052;28;20088;-58
2022/03/24 11:35:42;;;;;;;6.57;3.80;;;18.40;50.50;;;;;;4970079;28;20505;-58
2022/03/24 11:38:07;;;;;;;6.50;3.92;;;18.50;50.60;;;;;;4987201;28;20050;-58
2022/03/24 11:40:34;;;;;;;7.20;3.90;;;18.50;50.50;;;;;;4985882;28;20117;-58
2022/03/24 11:43:10;;;;;;;6.55;3.80;;;18.50;50.40;;;;;;4985993;28;20081;-58
2022/03/24 11:45:48;;;;;;;6.63;4.10;;;18.50;50.40;;;;;;4986524;28;20587;-58
2022/03/24 11:48:18;;;;;;;6.00;3.65;;;18.60;50.40;;;;;;4982058;28;20030;-58
2022/03/24 11:50:52;;;;;;;6.40;3.90;;;18.60;50.40;;;;;;4983154;28;20033;-58
2022/03/24 11:53:30;;;;;;;6.97;3.73;;;18.60;50.30;;;;;;5012969;28;20045;-58
2022/03/24 11:55:59;;;;;;;8.90;4.30;;;18.70;50.40;;;;;;5045963;28;20033;-58
2022/03/24 11:58:29;;;;;;;6.80;3.92;;;18.70;50.20;;;;;;5044825;28;20040;-58
2022/03/24 12:00:54;;;;;;;6.57;4.03;;;18.70;50.20;;;;;;5045730;28;20541;-58
2022/03/24 12:03:40;;;;;;;5.43;3.38;;;18.70;50.20;;;;;;5043845;28;20033;-58
2022/03/24 12:06:05;;;;;;;;;;;18.80;50.20;;;;;;5039947;28;20028;-58
2022/03/24 12:08:42;;;;;;;6.43;3.75;;;18.80;50.20;;;;;;5046368;28;19919;-58
2022/03/24 12:11:33;;;;;;;6.20;3.80;;;18.80;50.20;;;;;;5046460;28;20017;-58
2022/03/24 12:13:59;;;;;;;6.53;3.78;;;18.90;50.20;;;;;;5045186;28;20057;-58
2022/03/24 12:16:25;;;;;;;6.70;3.75;;;18.90;50.10;;;;;;5042449;28;20025;-58
2022/03/24 12:18:52;;;;;;;6.55;3.72;;;18.90;50.00;;;;;;5039056;28;20030;-58
2022/03/24 12:21:25;;;;;;;7.15;3.97;;;18.90;50.00;;;;;;5042755;28;20124;-58
2022/03/24 12:24:06;;;;;;;6.55;4.15;;;19.00;50.10;;;;;;5045556;28;20483;-58
2022/03/24 12:26:39;;;;;;;6.88;3.83;;;19.10;50.00;;;;;;5043937;28;20073;-58
2022/03/24 12:29:11;;;;;;;8.02;4.28;;;19.10;50.00;;;;;;5042034;28;20028;-58
2022/03/24 12:32:02;;;;;;;6.07;3.72;;;19.10;49.90;;;;;;5044392;28;20024;-58
2022/03/24 12:34:44;;;;;;;7.13;3.95;;;19.10;49.90;;;;;;5037397;28;20588;-58
2022/03/24 12:37:25;;;;;;;6.18;3.83;;;19.20;49.90;;;;;;5045428;28;20041;-58
2022/03/24 12:40:09;;;;;;;6.15;4.15;;;19.20;49.80;;;;;;5043801;28;20061;-59
2022/03/24 12:42:54;;;;;;;6.05;3.70;;;19.30;49.90;;;;;;5043715;28;20028;-58
2022/03/24 12:45:22;;;;;;;6.60;3.90;;;19.30;49.80;;;;;;5043115;28;20642;-58
2022/03/24 12:47:48;;;;;;;6.45;4.00;;;19.30;49.70;;;;;;5044776;28;20489;-58
2022/03/24 12:50:19;;;;;;;6.47;3.92;;;19.40;49.70;;;;;;5041005;28;20124;-58
2022/03/24 12:53:07;;;;;;;6.63;3.72;;;19.40;49.70;;;;;;5045731;28;20067;-58
2022/03/24 12:55:37;;;;;;;6.68;3.80;;;19.40;49.70;;;;;;5045161;28;20144;-58
2022/03/24 12:58:03;;;;;;;7.07;4.10;;;19.50;49.70;;;;;;5039759;28;20041;-58
2022/03/24 13:00:33;;;;;;;6.28;3.90;;;19.50;49.60;;;;;;5044097;28;20029;-58
2022/03/24 13:03:01;;;;;;;7.03;4.20;;;19.60;49.60;;;;;;5046482;28;20559;-58
2022/03/24 13:05:28;;;;;;;6.93;3.85;;;19.60;49.60;;;;;;5040216;28;20025;-58
2022/03/24 13:07:54;;;;;;;6.65;3.70;;;19.60;49.50;;;;;;5039416;28;20033;-58
2022/03/24 13:10:21;;;;;;;6.97;3.92;;;19.70;49.60;;;;;;5049227;28;20029;-58
2022/03/24 13:12:48;;;;;;;6.35;3.83;;;19.70;49.50;;;;;;5047655;28;20116;-58
2022/03/24 13:15:27;;;;;;;5.88;3.60;;;19.70;49.50;;;;;;5048593;28;20507;-58